Latest Coastal Weather Observations for Devonport Airport

IDV60701

Issued at 8:41 pm EST Thursday 26 May 2016 (issued every 10 minutes, with the page automatically refreshed every 10 minutes)

About coastal observations | Map of coastal stations | Coastal observations for VIC | Marine services | Other Formats
Station Details ID: 091126 Name: DEVONPORT AIRPORT Lat: -41.17 Lon: 146.43 Height: 8.0 m
Data from the previous 72 hours. | See also: Recent months at Devonport Airport
Date/Time
EST
Temp

°C
Wind Pressure Rain
since 9am
mm
Weather Cloud Vis
km
Sea
Height
m
Swell
Dir
 
Speed
knots
Gust
knots
hPa Trend Height
m
Period
s
Dir
26/08:30pm 7.6 SSE 5 7 1002.2 - 0.0 - - 10 - - - -
26/08:00pm 8.7 SSE 8 9 1002.2 - 0.0 - - 10 - - - -
26/07:30pm 7.9 S 6 8 1002.2 - 0.0 - - 10 - - - -
26/07:00pm 8.6 SSE 5 6 1002.0 - 0.0 - Partly cloudy 10 - - - -
26/06:30pm 8.5 SSE 6 7 1001.7 - 0.0 - - 10 - - - -
26/06:00pm 8.9 S 5 6 1001.5 - 0.0 - Cloudy 10 - - - -
26/05:30pm 10.1 SSE 4 5 1001.2 - 0.0 - Partly cloudy 10 - - - -
26/05:00pm 10.5 CALM 0 0 1000.9 - 0.0 - Partly cloudy 10 - - - -
26/04:30pm 12.1 W 1 3 1000.6 - 0.0 - Cloudy 10 - - - -
26/04:00pm 12.6 CALM 0 0 1000.3 - 0.0 - Partly cloudy 10 - - - -
26/03:30pm 12.5 S 5 7 1000.0 - 0.0 - Partly cloudy 10 - - - -
26/03:00pm 13.0 S 6 8 999.7 - 0.0 - Cloudy 10 - - - -
26/02:30pm 12.7 SSE 7 9 999.6 - 0.0 - Partly cloudy 10 - - - -
26/02:00pm 12.9 S 6 8 999.9 - 0.0 - Partly cloudy 10 - - - -
26/01:30pm 12.9 S 8 11 1000.0 - 0.0 - Partly cloudy 10 - - - -
26/01:00pm 12.8 S 8 11 1000.1 - 0.0 - Partly cloudy 10 - - - -
26/12:30pm 12.6 S 9 13 1000.3 - 0.0 - Cloudy 10 - - - -
26/12:00pm 12.3 S 9 12 1000.5 - 0.0 - Cloudy 10 - - - -
26/11:30am 11.8 S 9 12 1000.6 - 0.0 - Cloudy 10 - - - -
26/11:00am 11.4 S 9 11 1000.9 - 0.0 - Partly cloudy 10 - - - -
26/10:30am 10.9 S 8 11 1001.2 - 0.0 - Partly cloudy 10 - - - -
26/10:17am 10.8 S 9 11 1001.2 - 0.0 - Partly cloudy 10 - - - -
26/10:00am 10.9 S 8 11 1001.3 - 0.0 - Partly cloudy 10 - - - -
26/09:47am 10.8 S 7 9 1001.4 - 0.0 - Partly cloudy 10 - - - -
26/09:30am 10.9 S 8 11 1001.4 - 0.0 - Partly cloudy 10 - - - -
26/09:00am 10.6 SSW 6 9 1001.3 - 1.6 - Mostly cloudy 10 - - - -
26/08:30am 10.4 S 7 9 1001.2 - 1.6 - Partly cloudy 10 - - - -
26/08:00am 10.0 S 6 8 1001.3 - 1.6 - Partly cloudy 10 - - - -
26/07:30am 10.2 S 7 9 1001.3 - 1.6 - Partly cloudy 10 - - - -
26/07:00am 10.2 S 7 8 1001.1 - 1.6 - Partly cloudy 10 - - - -
26/06:30am 10.2 SSW 7 8 1001.2 - 1.6 - Partly cloudy 10 - - - -
26/06:25am 10.4 SSW 7 8 1001.3 - 1.6 - Partly cloudy 10 - - - -
26/06:20am 10.6 SSW 6 8 1001.3 - 1.6 - Partly cloudy 10 - - - -
26/06:00am 10.2 SSE 5 7 1001.3 - 1.6 - Cloudy 0.5 - - - -
26/05:45am 10.8 S 4 6 1001.3 - 1.6 - Partly cloudy 5 - - - -
26/05:42am 10.9 S 4 7 1001.4 - 1.6 - Partly cloudy 10 - - - -
26/05:30am 11.6 SSE 6 7 1001.1 - 1.6 - Cloudy 10 - - - -
26/05:20am 11.8 S 6 8 1001.2 - 1.6 - Cloudy 10 - - - -
26/05:00am 12.8 SSW 5 7 1001.4 - 1.6 - Partly cloudy 10 - - - -
26/04:47am 13.3 NW 6 8 1001.4 - 1.6 - Partly cloudy 10 - - - -
26/04:30am 13.5 NW 10 12 1001.4 - 1.6 - Cloudy 10 - - - -
26/04:09am 13.6 NNW 11 15 1001.4 - 1.6 - Partly cloudy 10 - - - -
26/04:00am 13.7 NNW 13 17 1001.4 - 1.6 - Partly cloudy 10 - - - -
26/03:30am 13.5 NW 16 19 1001.7 - 1.6 - Partly cloudy 10 - - - -
26/03:00am 13.4 NW 17 21 1002.1 - 1.6 Rain Cloudy 10 - - - -
26/02:51am 13.5 NW 16 20 1002.1 - 1.6 - Partly cloudy 10 - - - -
26/02:30am 13.1 NW 17 21 1002.5 - 1.6 - Partly cloudy 4 - - - -
26/02:00am 13.1 NW 14 19 1003.0 - 1.0 - Partly cloudy 4 - - - -
26/01:30am 13.1 NW 15 20 1003.3 - 0.2 - Partly cloudy 5 - - - -
26/01:27am 13.1 NW 15 20 1003.3 - 0.2 - Partly cloudy 6 - - - -
26/01:06am 13.3 NW 13 16 1003.6 - 0.2 - Partly cloudy 9 - - - -
26/01:00am 13.1 NW 13 16 1003.5 - 0.2 - Partly cloudy 10 - - - -
26/12:30am 12.7 WNW 13 16 1004.0 - 0.0 - Partly cloudy 4 - - - -
26/12:17am 12.8 NW 15 20 1004.1 - 0.0 - Partly cloudy 6 - - - -
26/12:00am 13.1 NW 12 15 1004.6 - 0.0 Showers Cloudy 9 - - - -
 
Date/Time
EST
Temp

°C
Wind Pressure Rain
since 9am
mm
Weather Cloud Vis
km
Sea
Height
m
Swell
Dir
 
Speed
knots
Gust
knots
hPa Trend Height
m
Period
s
Dir
25/11:53pm 13.1 NW 14 17 1004.7 - 0.0 - Partly cloudy 10 - - - -
25/11:38pm 13.2 NW 13 16 1004.8 - 0.0 - Partly cloudy 6 - - - -
25/11:30pm 13.3 WNW 15 19 1004.9 - 0.0 - Partly cloudy 10 - - - -
25/11:03pm 14.0 NW 16 20 1005.2 - 0.0 - Partly cloudy 10 - - - -
25/11:00pm 13.9 NW 16 20 1005.2 - 0.0 - Partly cloudy 10 - - - -
25/10:49pm 13.9 NNW 16 19 1005.3 - 0.0 - Partly cloudy 10 - - - -
25/10:30pm 14.0 NW 15 20 1005.6 - 0.0 - Partly cloudy 10 - - - -
25/10:00pm 13.8 NW 17 22 1006.1 - 0.0 - Partly cloudy 10 - - - -
25/09:30pm 13.7 NNW 18 23 1006.3 - 0.0 - Partly cloudy 10 - - - -
25/09:00pm 13.6 NW 18 22 1006.3 - 0.0 - Cloudy 10 - - - -
25/08:58pm 13.6 NW 18 22 1006.3 - 0.0 - Partly cloudy 10 - - - -
25/08:46pm 13.5 WNW 13 22 1006.4 - 0.0 - Partly cloudy 10 - - - -
25/08:30pm 11.5 W 5 12 1006.6 - 0.0 - Cloudy 10 - - - -
25/08:24pm 9.9 S 3 6 1006.6 - 0.0 - Partly cloudy 10 - - - -
25/08:00pm 9.0 S 7 9 1006.6 - 0.0 - Partly cloudy 10 - - - -
25/07:30pm 9.2 S 8 9 1006.6 - 0.0 - Partly cloudy 10 - - - -
25/07:00pm 9.7 SSE 9 11 1006.6 - 0.0 - Partly cloudy 10 - - - -
25/06:30pm 10.0 SSE 8 11 1006.9 - 0.0 - Partly cloudy 10 - - - -
25/06:00pm 9.7 SSE 7 9 1007.1 - 0.0 - Mostly cloudy 10 - - - -
25/05:30pm 9.5 S 7 9 1007.3 - 0.0 - Partly cloudy 10 - - - -
25/05:00pm 9.7 SSE 7 9 1007.4 - 0.0 - Partly cloudy 10 - - - -
25/04:30pm 9.9 S 5 7 1007.7 - 0.0 - Partly cloudy 10 - - - -
25/04:00pm 10.2 S 6 7 1008.1 - 0.0 - Partly cloudy 10 - - - -
25/03:30pm 10.4 SSW 6 9 1008.4 - 0.0 - Partly cloudy 10 - - - -
25/03:00pm 10.6 S 6 8 1008.5 - 0.0 - Cloudy 10 - - - -
25/02:30pm 11.3 SSE 6 7 1008.6 - 0.0 - - 10 - - - -
25/02:00pm 11.1 SE 5 6 1009.1 - 0.0 - Partly cloudy 10 - - - -
25/01:30pm 11.0 SE 3 4 1009.8 - 0.0 - Partly cloudy 10 - - - -
25/01:00pm 10.7 SE 4 6 1010.1 - 0.0 - Partly cloudy 10 - - - -
25/12:30pm 9.7 SSE 6 7 1010.7 - 0.0 - Partly cloudy 10 - - - -
25/12:00pm 8.0 S 5 7 1011.3 - 0.0 - Cloudy 10 - - - -
25/11:30am 8.2 SSE 6 7 1011.8 - 0.0 - Cloudy 10 - - - -
25/11:00am 7.4 SSE 6 7 1012.4 - 0.0 - Partly cloudy 10 - - - -
25/10:30am 7.2 SSE 7 9 1013.2 - 0.0 - Partly cloudy 10 - - - -
25/10:00am 6.2 S 7 11 1013.0 - 0.0 - Partly cloudy 10 - - - -
25/09:30am 5.5 SSE 7 10 1013.4 - 0.0 - Partly cloudy 10 - - - -
25/09:00am 4.8 S 7 9 1014.1 - 0.0 - Cloudy 10 - - - -
25/08:30am 4.3 SSW 6 8 1014.3 - 0.0 - Partly cloudy 10 - - - -
25/08:00am 3.5 SSE 8 10 1014.3 - 0.0 - Cloudy 10 - - - -
25/07:30am 2.6 S 7 9 1014.4 - 0.0 - Partly cloudy 10 - - - -
25/07:00am 2.3 SSW 8 10 1014.1 - 0.0 - - 10 - - - -
25/06:30am 2.7 S 7 8 1013.7 - 0.0 - - 10 - - - -
25/06:00am 2.3 S 8 11 1014.0 - 0.0 - Mostly clear 10 - - - -
25/05:30am 2.1 S 8 9 1014.7 - 0.0 - - 10 - - - -
25/05:00am 3.1 S 7 9 1014.5 - 0.0 - - 10 - - - -
25/04:30am 2.8 S 7 8 1014.9 - 0.0 - - 10 - - - -
25/04:00am 3.0 S 6 9 1015.2 - 0.0 - - 10 - - - -
25/03:30am 2.9 SSE 9 11 1015.0 - 0.0 - - 10 - - - -
25/03:00am 3.1 S 8 9 1014.9 - 0.0 - - 10 - - - -
25/02:30am 3.1 S 7 9 1014.8 - 0.0 - - 10 - - - -
25/02:00am 3.2 S 5 7 1015.1 - 0.0 - - 10 - - - -
25/01:30am 3.2 SSE 7 10 1015.2 - 0.0 - - 10 - - - -
25/01:00am 4.0 S 7 7 1015.4 - 0.0 - - 10 - - - -
25/12:30am 3.6 SSE 8 8 1015.7 - 0.0 - - 10 - - - -
25/12:00am 3.7 SSW 6 7 1016.2 - 0.0 - - 10 - - - -
 
Date/Time
EST
Temp

°C
Wind Pressure Rain
since 9am
mm
Weather Cloud Vis
km
Sea
Height
m
Swell
Dir
 
Speed
knots
Gust
knots
hPa Trend Height
m
Period
s
Dir
24/11:30pm 3.7 SSE 7 8 1016.0 - 0.0 - - 10 - - - -
24/11:00pm 4.0 S 7 8 1016.0 - 0.0 - - 10 - - - -
24/10:30pm 4.5 ESE 3 5 1016.2 - 0.0 - - 10 - - - -
24/10:00pm 4.0 ESE 4 5 1016.5 - 0.0 - - 10 - - - -
24/09:30pm 4.8 CALM 0 0 1016.9 - 0.0 - - 10 - - - -
24/09:00pm 5.2 W 3 4 1017.0 - 0.0 - - 10 - - - -
24/08:30pm 7.4 SSW 5 7 1016.9 - 0.0 - - 10 - - - -
24/08:00pm 7.6 SW 5 7 1016.8 - 0.0 - - 10 - - - -
24/07:30pm 9.2 SW 7 9 1016.5 - 0.0 - - 10 - - - -
24/07:00pm 9.7 SW 7 10 1016.4 - 0.0 - - 10 - - - -
24/06:30pm 9.1 WSW 6 8 1016.2 - 0.0 - - 10 - - - -
24/06:00pm 8.3 W 3 5 1016.1 - 0.0 - - 10 - - - -
24/05:30pm 8.6 WSW 9 10 1015.6 - 0.0 - - 10 - - - -
24/05:00pm 10.0 WSW 10 11 1015.6 - 0.0 - - 10 - - - -
24/04:30pm 12.1 W 6 8 1015.5 - 0.0 - - 10 - - - -
24/04:00pm 13.1 WSW 12 15 1015.1 - 0.0 - - 10 - - - -
24/03:30pm 13.7 WSW 12 15 1014.8 - 0.0 - - 10 - - - -
24/03:00pm 14.3 WSW 9 11 1014.6 - 0.0 - Mostly clear 10 - - - -
24/02:30pm 14.2 WSW 9 11 1014.4 - 0.0 - Partly cloudy 10 - - - -
24/02:00pm 14.2 WSW 11 14 1014.6 - 0.0 - Partly cloudy 10 - - - -
24/01:30pm 14.2 W 11 16 1014.5 - 0.0 - Partly cloudy 10 - - - -
24/01:00pm 14.1 W 10 14 1014.5 - 0.0 - Cloudy 10 - - - -
24/12:30pm 13.5 W 10 13 1014.8 - 0.0 - Partly cloudy 10 - - - -
24/12:00pm 13.7 W 9 15 1014.7 - 0.0 - Mostly clear 10 - - - -
24/11:30am 13.3 W 10 14 1015.0 - 0.0 - - 10 - - - -
24/11:00am 13.2 WSW 10 14 1015.3 - 0.0 - - 10 - - - -
24/10:30am 12.4 W 11 17 1015.6 - 0.0 - - 10 - - - -
24/10:00am 11.5 WNW 9 11 1015.5 - 0.0 - - 10 - - - -
24/09:30am 10.5 W 6 8 1015.6 - 0.0 - - 10 - - - -
24/09:00am 9.7 SE 4 5 1015.4 - 0.0 - - 10 - - - -
24/08:30am 8.0 SE 5 7 1015.2 - 0.0 - - 10 - - - -
24/08:00am 6.0 WSW 3 5 1015.1 - 0.0 - - 10 - - - -
24/07:30am 4.6 WSW 6 8 1014.6 - 0.0 - - 10 - - - -
24/07:00am 4.7 WSW 8 9 1014.1 - 0.0 - - 10 - - - -
24/06:30am 6.0 WSW 10 12 1013.8 - 0.0 - - 10 - - - -
24/06:00am 4.1 WSW 7 8 1013.7 - 0.0 - - 10 - - - -
24/05:30am 4.2 W 10 12 1013.5 - 0.0 - - 10 - - - -
24/05:00am 5.9 SW 4 6 1013.4 - 0.0 - - 10 - - - -
24/04:30am 4.0 W 9 9 1013.1 - 0.0 - - 10 - - - -
24/04:00am 5.3 W 7 8 1013.2 - 0.0 - - 10 - - - -
24/03:30am 6.0 SSW 4 5 1013.1 - 0.0 - - 10 - - - -
24/03:00am 6.0 SSE 1 5 1013.1 - 0.0 - Partly cloudy 10 - - - -
24/02:30am 6.6 SSW 3 5 1013.1 - 0.0 - Partly cloudy 10 - - - -
24/02:00am 7.0 W 7 7 1013.1 - 0.0 - Partly cloudy 10 - - - -
24/01:30am 6.1 W 8 9 1013.1 - 0.0 - Partly cloudy 10 - - - -
24/01:00am 6.3 W 7 9 1013.1 - 0.0 - Partly cloudy 10 - - - -
24/12:30am 5.0 WNW 3 5 1013.2 - 0.0 - - 10 - - - -
24/12:00am 5.0 NNE 2 4 1013.3 - 0.0 - - 10 - - - -
 
Date/Time
EST
Temp

°C
Wind Pressure Rain
since 9am
mm
Weather Cloud Vis
km
Sea
Height
m
Swell
Dir
 
Speed
knots
Gust
knots
hPa Trend Height
m
Period
s
Dir
23/11:30pm 6.1 NW 3 4 1012.9 - 0.0 - - 10 - - - -
23/11:00pm 7.9 WNW 7 9 1013.1 - 0.0 - - 10 - - - -
23/10:30pm 7.7 WNW 6 8 1013.3 - 0.0 - - 10 - - - -
23/10:00pm 8.1 WSW 7 8 1013.2 - 0.0 - - 10 - - - -
23/09:30pm 8.4 W 8 10 1013.1 - 0.0 - - 10 - - - -
23/09:00pm 7.6 WNW 5 6 1013.1 - 0.0 - - 10 - - - -

Other Formats:

Comma delimited format used in spreadsheet applications
http://www.bom.gov.au/fwo/IDV60701/IDV60701.95960.axf

JavaScript Object Notation format (JSON) in row-major order
http://www.bom.gov.au/fwo/IDV60701/IDV60701.95960.json